sensor_id;sensor_type;location;lat;lon;timestamp;pressure;altitude;pressure_sealevel;temperature
75273;BMP280;63869;52.344;16.928;2023-03-12T00:01:12;99908.97;;;4.11
75273;BMP280;63869;52.344;16.928;2023-03-12T00:03:38;99912.00;;;4.13
75273;BMP280;63869;52.344;16.928;2023-03-12T00:06:05;99902.19;;;4.14
75273;BMP280;63869;52.344;16.928;2023-03-12T00:08:30;99908.97;;;4.15
75273;BMP280;63869;52.344;16.928;2023-03-12T00:10:55;99907.44;;;4.17
75273;BMP280;63869;52.344;16.928;2023-03-12T00:13:21;99902.91;;;4.18
75273;BMP280;63869;52.344;16.928;2023-03-12T00:15:46;99896.09;;;4.17
75273;BMP280;63869;52.344;16.928;2023-03-12T00:18:11;99902.16;;;4.21
75273;BMP280;63869;52.344;16.928;2023-03-12T00:20:36;99902.16;;;4.21
75273;BMP280;63869;52.344;16.928;2023-03-12T00:23:02;99908.94;;;4.18
75273;BMP280;63869;52.344;16.928;2023-03-12T00:25:27;99910.47;;;4.19
75273;BMP280;63869;52.344;16.928;2023-03-12T00:27:52;99903.66;;;4.18
75273;BMP280;63869;52.344;16.928;2023-03-12T00:30:18;99908.22;;;4.21
75273;BMP280;63869;52.344;16.928;2023-03-12T00:32:43;99906.69;;;4.20
75273;BMP280;63869;52.344;16.928;2023-03-12T00:35:09;99913.13;;;4.19
75273;BMP280;63869;52.344;16.928;2023-03-12T00:37:36;99911.97;;;4.17
75273;BMP280;63869;52.344;16.928;2023-03-12T00:40:01;99920.28;;;4.19
75273;BMP280;63869;52.344;16.928;2023-03-12T00:42:29;99908.19;;;4.18
75273;BMP280;63869;52.344;16.928;2023-03-12T00:44:54;99906.69;;;4.17
75273;BMP280;63869;52.344;16.928;2023-03-12T00:47:20;99915.03;;;4.15
75273;BMP280;63869;52.344;16.928;2023-03-12T00:49:45;99903.69;;;4.15
75273;BMP280;63869;52.344;16.928;2023-03-12T00:52:10;99901.41;;;4.13
75273;BMP280;63869;52.344;16.928;2023-03-12T00:54:36;99905.97;;;4.16
75273;BMP280;63869;52.344;16.928;2023-03-12T00:57:01;99912.38;;;4.15
75273;BMP280;63869;52.344;16.928;2023-03-12T00:59:26;99914.28;;;4.15
75273;BMP280;63869;52.344;16.928;2023-03-12T01:01:52;99918.44;;;4.16
75273;BMP280;63869;52.344;16.928;2023-03-12T01:04:17;99915.78;;;4.16
75273;BMP280;63869;52.344;16.928;2023-03-12T01:06:42;99924.84;;;4.15
75273;BMP280;63869;52.344;16.928;2023-03-12T01:09:08;99915.41;;;4.14
75273;BMP280;63869;52.344;16.928;2023-03-12T01:11:35;99908.59;;;4.16
75273;BMP280;63869;52.344;16.928;2023-03-12T01:14:01;99909.75;;;4.15
75273;BMP280;63869;52.344;16.928;2023-03-12T01:16:27;99918.41;;;4.19
75273;BMP280;63869;52.344;16.928;2023-03-12T01:18:55;99912.00;;;4.24
75273;BMP280;63869;52.344;16.928;2023-03-12T01:21:21;99924.13;;;4.28
75273;BMP280;63869;52.344;16.928;2023-03-12T01:23:46;99919.22;;;4.30
75273;BMP280;63869;52.344;16.928;2023-03-12T01:26:11;99931.31;;;4.35
75273;BMP280;63869;52.344;16.928;2023-03-12T01:28:37;99931.69;;;4.37
75273;BMP280;63869;52.344;16.928;2023-03-12T01:31:14;99937.38;;;4.43
75273;BMP280;63869;52.344;16.928;2023-03-12T01:33:40;99930.94;;;4.47
75273;BMP280;63869;52.344;16.928;2023-03-12T01:36:16;99928.28;;;4.51
75273;BMP280;63869;52.344;16.928;2023-03-12T01:38:42;99934.34;;;4.55
75273;BMP280;63869;52.344;16.928;2023-03-12T01:41:07;99943.41;;;4.57
75273;BMP280;63869;52.344;16.928;2023-03-12T01:43:35;99934.34;;;4.62
75273;BMP280;63869;52.344;16.928;2023-03-12T01:48:40;99938.13;;;4.72
75273;BMP280;63869;52.344;16.928;2023-03-12T01:51:09;99939.66;;;4.73
75273;BMP280;63869;52.344;16.928;2023-03-12T01:53:36;99937.75;;;4.77
75273;BMP280;63869;52.344;16.928;2023-03-12T01:56:02;99928.69;;;4.78
75273;BMP280;63869;52.344;16.928;2023-03-12T01:58:29;99929.06;;;4.80
75273;BMP280;63869;52.344;16.928;2023-03-12T02:00:57;99942.28;;;4.83
75273;BMP280;63869;52.344;16.928;2023-03-12T02:03:22;99935.47;;;4.86
75273;BMP280;63869;52.344;16.928;2023-03-12T02:05:57;99935.47;;;4.86
75273;BMP280;63869;52.344;16.928;2023-03-12T02:08:24;99933.22;;;4.88
75273;BMP280;63869;52.344;16.928;2023-03-12T02:10:50;99935.50;;;4.93
75273;BMP280;63869;52.344;16.928;2023-03-12T02:13:15;99936.22;;;4.97
75273;BMP280;63869;52.344;16.928;2023-03-12T02:15:41;99937.75;;;4.98
75273;BMP280;63869;52.344;16.928;2023-03-12T02:18:08;99944.94;;;5.05
75273;BMP280;63869;52.344;16.928;2023-03-12T02:23:31;99943.81;;;5.09
75273;BMP280;63869;52.344;16.928;2023-03-12T02:25:59;99939.28;;;5.06
75273;BMP280;63869;52.344;16.928;2023-03-12T02:28:28;99942.69;;;5.07
75273;BMP280;63869;52.344;16.928;2023-03-12T02:30:58;99947.94;;;5.03
75273;BMP280;63869;52.344;16.928;2023-03-12T02:33:24;99941.16;;;4.98
75273;BMP280;63869;52.344;16.928;2023-03-12T02:35:50;99939.28;;;4.92
75273;BMP280;63869;52.344;16.928;2023-03-12T02:41:25;99937.38;;;4.82
75273;BMP280;63869;52.344;16.928;2023-03-12T02:43:59;99942.66;;;4.78
75273;BMP280;63869;52.344;16.928;2023-03-12T02:46:28;99950.63;;;4.78
75273;BMP280;63869;52.344;16.928;2023-03-12T02:48:55;99962.34;;;4.81
75273;BMP280;63869;52.344;16.928;2023-03-12T02:51:20;99954.41;;;4.81
75273;BMP280;63869;52.344;16.928;2023-03-12T02:53:45;99963.09;;;4.85
75273;BMP280;63869;52.344;16.928;2023-03-12T02:56:11;99955.16;;;4.88
75273;BMP280;63869;52.344;16.928;2023-03-12T02:58:36;99963.47;;;4.94
75273;BMP280;63869;52.344;16.928;2023-03-12T03:01:02;99955.16;;;4.99
75273;BMP280;63869;52.344;16.928;2023-03-12T03:03:27;99972.53;;;5.04
75273;BMP280;63869;52.344;16.928;2023-03-12T03:05:52;99966.53;;;5.07
75273;BMP280;63869;52.344;16.928;2023-03-12T03:08:18;99967.66;;;5.09
75273;BMP280;63869;52.344;16.928;2023-03-12T03:10:43;99971.78;;;5.10
75273;BMP280;63869;52.344;16.928;2023-03-12T03:13:08;99972.16;;;5.12
75273;BMP280;63869;52.344;16.928;2023-03-12T03:15:33;99961.94;;;5.14
75273;BMP280;63869;52.344;16.928;2023-03-12T03:17:59;99963.06;;;5.13
75273;BMP280;63869;52.344;16.928;2023-03-12T03:20:28;99966.09;;;5.12
75273;BMP280;63869;52.344;16.928;2023-03-12T03:22:53;99966.84;;;5.16
75273;BMP280;63869;52.344;16.928;2023-03-12T03:25:18;99961.19;;;5.14
75273;BMP280;63869;52.344;16.928;2023-03-12T03:27:47;99968.38;;;5.13
75273;BMP280;63869;52.344;16.928;2023-03-12T03:30:13;99965.75;;;5.10
75273;BMP280;63869;52.344;16.928;2023-03-12T03:32:38;99975.94;;;5.04
75273;BMP280;63869;52.344;16.928;2023-03-12T03:35:04;99972.56;;;5.00
75273;BMP280;63869;52.344;16.928;2023-03-12T03:37:29;99978.59;;;4.93
75273;BMP280;63869;52.344;16.928;2023-03-12T03:39:54;99979.75;;;4.85
75273;BMP280;63869;52.344;16.928;2023-03-12T03:42:20;99987.31;;;4.80
75273;BMP280;63869;52.344;16.928;2023-03-12T03:44:45;99988.44;;;4.75
75273;BMP280;63869;52.344;16.928;2023-03-12T03:47:10;99992.97;;;4.71
75273;BMP280;63869;52.344;16.928;2023-03-12T03:49:35;99994.09;;;4.66
75273;BMP280;63869;52.344;16.928;2023-03-12T03:52:01;100000.91;;;4.60
75273;BMP280;63869;52.344;16.928;2023-03-12T03:54:26;100000.50;;;4.55
75273;BMP280;63869;52.344;16.928;2023-03-12T03:56:52;100004.66;;;4.52
75273;BMP280;63869;52.344;16.928;2023-03-12T03:59:17;100005.41;;;4.49
75273;BMP280;63869;52.344;16.928;2023-03-12T04:01:42;100011.47;;;4.43
75273;BMP280;63869;52.344;16.928;2023-03-12T04:04:08;100021.63;;;4.41
75273;BMP280;63869;52.344;16.928;2023-03-12T04:06:33;100012.53;;;4.38
75273;BMP280;63869;52.344;16.928;2023-03-12T04:08:59;100020.88;;;4.33
75273;BMP280;63869;52.344;16.928;2023-03-12T04:11:24;100026.53;;;4.31
75273;BMP280;63869;52.344;16.928;2023-03-12T04:13:50;100021.63;;;4.26
75273;BMP280;63869;52.344;16.928;2023-03-12T04:16:16;100032.19;;;4.26
75273;BMP280;63869;52.344;16.928;2023-03-12T04:18:42;100032.53;;;4.25
75273;BMP280;63869;52.344;16.928;2023-03-12T04:21:13;100035.94;;;4.25
75273;BMP280;63869;52.344;16.928;2023-03-12T04:23:39;100033.72;;;4.27
75273;BMP280;63869;52.344;16.928;2023-03-12T04:26:05;100053.75;;;4.32
75273;BMP280;63869;52.344;16.928;2023-03-12T04:28:31;100035.63;;;4.34
75273;BMP280;63869;52.344;16.928;2023-03-12T04:30:58;100039.03;;;4.42
75273;BMP280;63869;52.344;16.928;2023-03-12T04:33:28;100045.09;;;4.46
75273;BMP280;63869;52.344;16.928;2023-03-12T04:35:53;100051.16;;;4.50
75273;BMP280;63869;52.344;16.928;2023-03-12T04:38:20;100054.19;;;4.55
75273;BMP280;63869;52.344;16.928;2023-03-12T04:40:46;100047.78;;;4.56
75273;BMP280;63869;52.344;16.928;2023-03-12T04:43:11;100050.44;;;4.63
75273;BMP280;63869;52.344;16.928;2023-03-12T04:45:37;100052.72;;;4.69
75273;BMP280;63869;52.344;16.928;2023-03-12T04:48:03;100058.44;;;4.74
75273;BMP280;63869;52.344;16.928;2023-03-12T04:50:29;100057.66;;;4.77
75273;BMP280;63869;52.344;16.928;2023-03-12T04:52:54;100058.03;;;4.83
75273;BMP280;63869;52.344;16.928;2023-03-12T04:55:19;100067.50;;;4.84
75273;BMP280;63869;52.344;16.928;2023-03-12T04:57:45;100066.75;;;4.87
75273;BMP280;63869;52.344;16.928;2023-03-12T05:00:10;100076.22;;;4.88
75273;BMP280;63869;52.344;16.928;2023-03-12T05:02:38;100087.56;;;4.85
75273;BMP280;63869;52.344;16.928;2023-03-12T05:05:04;100089.06;;;4.82
75273;BMP280;63869;52.344;16.928;2023-03-12T05:07:29;100087.91;;;4.76
75273;BMP280;63869;52.344;16.928;2023-03-12T05:09:54;100083.34;;;4.70
75273;BMP280;63869;52.344;16.928;2023-03-12T05:12:20;100071.63;;;4.63
75273;BMP280;63869;52.344;16.928;2023-03-12T05:14:45;100089.75;;;4.61
75273;BMP280;63869;52.344;16.928;2023-03-12T05:17:10;100097.69;;;4.54
75273;BMP280;63869;52.344;16.928;2023-03-12T05:19:35;100097.31;;;4.52
75273;BMP280;63869;52.344;16.928;2023-03-12T05:22:01;100088.19;;;4.46
75273;BMP280;63869;52.344;16.928;2023-03-12T05:24:26;100102.59;;;4.49
75273;BMP280;63869;52.344;16.928;2023-03-12T05:26:52;100115.81;;;4.45
75273;BMP280;63869;52.344;16.928;2023-03-12T05:29:17;100107.09;;;4.45
75273;BMP280;63869;52.344;16.928;2023-03-12T05:31:43;100120.72;;;4.47
75273;BMP280;63869;52.344;16.928;2023-03-12T05:34:11;100125.25;;;4.46
75273;BMP280;63869;52.344;16.928;2023-03-12T05:36:37;100123.75;;;4.45
75273;BMP280;63869;52.344;16.928;2023-03-12T05:39:02;100127.16;;;4.49
75273;BMP280;63869;52.344;16.928;2023-03-12T05:41:29;100131.72;;;4.52
75273;BMP280;63869;52.344;16.928;2023-03-12T05:43:56;100124.53;;;4.56
75273;BMP280;63869;52.344;16.928;2023-03-12T05:46:22;100130.97;;;4.62
75273;BMP280;63869;52.344;16.928;2023-03-12T05:48:48;100142.94;;;4.31
75273;BMP280;63869;52.344;16.928;2023-03-12T05:51:14;100143.75;;;3.81
75273;BMP280;63869;52.344;16.928;2023-03-12T05:53:40;100152.31;;;3.23
75273;BMP280;63869;52.344;16.928;2023-03-12T05:56:07;100157.38;;;2.71
75273;BMP280;63869;52.344;16.928;2023-03-12T05:58:35;100170.22;;;2.47
75273;BMP280;63869;52.344;16.928;2023-03-12T06:01:01;100169.94;;;2.25
75273;BMP280;63869;52.344;16.928;2023-03-12T06:03:26;100170.25;;;1.97
75273;BMP280;63869;52.344;16.928;2023-03-12T06:05:52;100172.44;;;1.92
75273;BMP280;63869;52.344;16.928;2023-03-12T06:08:22;100189.66;;;1.86
75273;BMP280;63869;52.344;16.928;2023-03-12T06:10:51;100194.03;;;1.78
75273;BMP280;63869;52.344;16.928;2023-03-12T06:13:20;100185.47;;;1.62
75273;BMP280;63869;52.344;16.928;2023-03-12T06:15:46;100189.47;;;1.75
75273;BMP280;63869;52.344;16.928;2023-03-12T06:18:11;100199.31;;;1.78
75273;BMP280;63869;52.344;16.928;2023-03-12T06:20:38;100196.44;;;1.87
75273;BMP280;63869;52.344;16.928;2023-03-12T06:23:03;100189.00;;;1.92
75273;BMP280;63869;52.344;16.928;2023-03-12T06:25:29;100193.56;;;1.95
75273;BMP280;63869;52.344;16.928;2023-03-12T06:27:55;100206.75;;;1.95
75273;BMP280;63869;52.344;16.928;2023-03-12T06:30:20;100204.63;;;2.04
75273;BMP280;63869;52.344;16.928;2023-03-12T06:32:45;100209.63;;;2.09
75273;BMP280;63869;52.344;16.928;2023-03-12T06:35:11;100216.59;;;2.21
75273;BMP280;63869;52.344;16.928;2023-03-12T06:37:36;100206.69;;;2.14
75273;BMP280;63869;52.344;16.928;2023-03-12T06:40:02;100217.22;;;2.14
75273;BMP280;63869;52.344;16.928;2023-03-12T06:42:29;100213.88;;;2.18
75273;BMP280;63869;52.344;16.928;2023-03-12T06:44:54;100212.78;;;2.19
75273;BMP280;63869;52.344;16.928;2023-03-12T06:47:20;100222.75;;;2.29
75273;BMP280;63869;52.344;16.928;2023-03-12T06:49:46;100224.38;;;2.37
75273;BMP280;63869;52.344;16.928;2023-03-12T06:52:11;100218.28;;;2.36
75273;BMP280;63869;52.344;16.928;2023-03-12T06:54:36;100225.56;;;2.43
75273;BMP280;63869;52.344;16.928;2023-03-12T06:57:02;100235.94;;;2.32
75273;BMP280;63869;52.344;16.928;2023-03-12T06:59:27;100234.69;;;2.23
75273;BMP280;63869;52.344;16.928;2023-03-12T07:01:53;100237.16;;;2.12
75273;BMP280;63869;52.344;16.928;2023-03-12T07:04:18;100246.69;;;2.20
75273;BMP280;63869;52.344;16.928;2023-03-12T07:06:44;100224.16;;;2.23
75273;BMP280;63869;52.344;16.928;2023-03-12T07:09:15;100239.84;;;2.38
75273;BMP280;63869;52.344;16.928;2023-03-12T07:11:40;100238.00;;;2.42
75273;BMP280;63869;52.344;16.928;2023-03-12T07:14:06;100241.44;;;2.47
75273;BMP280;63869;52.344;16.928;2023-03-12T07:16:32;100262.50;;;2.43
75273;BMP280;63869;52.344;16.928;2023-03-12T07:18:57;100235.19;;;2.32
75273;BMP280;63869;52.344;16.928;2023-03-12T07:21:23;100256.88;;;2.44
75273;BMP280;63869;52.344;16.928;2023-03-12T07:23:49;100243.69;;;2.44
75273;BMP280;63869;52.344;16.928;2023-03-12T07:26:15;100248.91;;;2.41
75273;BMP280;63869;52.344;16.928;2023-03-12T07:28:41;100245.56;;;2.44
75273;BMP280;63869;52.344;16.928;2023-03-12T07:31:06;100252.19;;;2.57
75273;BMP280;63869;52.344;16.928;2023-03-12T07:33:32;100243.91;;;2.59
75273;BMP280;63869;52.344;16.928;2023-03-12T07:35:58;100256.81;;;2.67
75273;BMP280;63869;52.344;16.928;2023-03-12T07:38:23;100254.59;;;2.69
75273;BMP280;63869;52.344;16.928;2023-03-12T07:40:52;100254.41;;;2.55
75273;BMP280;63869;52.344;16.928;2023-03-12T07:43:18;100264.47;;;2.50
75273;BMP280;63869;52.344;16.928;2023-03-12T07:45:43;100265.44;;;2.64
75273;BMP280;63869;52.344;16.928;2023-03-12T07:48:08;100266.41;;;2.79
75273;BMP280;63869;52.344;16.928;2023-03-12T07:50:35;100274.56;;;2.97
75273;BMP280;63869;52.344;16.928;2023-03-12T07:53:00;100279.66;;;3.09
75273;BMP280;63869;52.344;16.928;2023-03-12T07:55:26;100268.66;;;3.03
75273;BMP280;63869;52.344;16.928;2023-03-12T07:57:52;100281.16;;;3.10
75273;BMP280;63869;52.344;16.928;2023-03-12T08:00:20;100272.47;;;3.10
75273;BMP280;63869;52.344;16.928;2023-03-12T08:02:46;100292.09;;;3.08
75273;BMP280;63869;52.344;16.928;2023-03-12T08:05:11;100280.84;;;3.15
75273;BMP280;63869;52.344;16.928;2023-03-12T08:07:37;100278.56;;;3.14
75273;BMP280;63869;52.344;16.928;2023-03-12T08:10:05;100288.09;;;3.18
75273;BMP280;63869;52.344;16.928;2023-03-12T08:12:30;100279.81;;;3.20
75273;BMP280;63869;52.344;16.928;2023-03-12T08:14:56;100274.19;;;3.25
75273;BMP280;63869;52.344;16.928;2023-03-12T08:17:21;100278.31;;;3.22
75273;BMP280;63869;52.344;16.928;2023-03-12T08:19:47;100290.94;;;3.36
75273;BMP280;63869;52.344;16.928;2023-03-12T08:22:14;100286.06;;;3.38
75273;BMP280;63869;52.344;16.928;2023-03-12T08:24:39;100289.84;;;3.41
75273;BMP280;63869;52.344;16.928;2023-03-12T08:27:04;100289.06;;;3.36
75273;BMP280;63869;52.344;16.928;2023-03-12T08:29:31;100289.56;;;3.49
75273;BMP280;63869;52.344;16.928;2023-03-12T08:31:57;100296.44;;;3.57
75273;BMP280;63869;52.344;16.928;2023-03-12T08:34:23;100302.41;;;3.51
75273;BMP280;63869;52.344;16.928;2023-03-12T08:36:48;100307.19;;;3.38
75273;BMP280;63869;52.344;16.928;2023-03-12T08:39:13;100304.50;;;3.34
75273;BMP280;63869;52.344;16.928;2023-03-12T08:41:39;100304.22;;;3.43
75273;BMP280;63869;52.344;16.928;2023-03-12T08:44:04;100296.00;;;3.52
75273;BMP280;63869;52.344;16.928;2023-03-12T08:46:29;100310.91;;;3.67
75273;BMP280;63869;52.344;16.928;2023-03-12T08:48:55;100315.19;;;3.79
75273;BMP280;63869;52.344;16.928;2023-03-12T08:51:20;100306.91;;;3.80
75273;BMP280;63869;52.344;16.928;2023-03-12T08:53:46;100313.00;;;3.88
75273;BMP280;63869;52.344;16.928;2023-03-12T08:56:11;100306.06;;;3.76
75273;BMP280;63869;52.344;16.928;2023-03-12T08:58:37;100328.22;;;3.94
75273;BMP280;63869;52.344;16.928;2023-03-12T09:01:07;100323.69;;;3.98
75273;BMP280;63869;52.344;16.928;2023-03-12T09:03:35;100324.38;;;3.92
75273;BMP280;63869;52.344;16.928;2023-03-12T09:06:06;100328.75;;;4.11
75273;BMP280;63869;52.344;16.928;2023-03-12T09:08:33;100327.66;;;4.19
75273;BMP280;63869;52.344;16.928;2023-03-12T09:10:59;100329.69;;;4.32
75273;BMP280;63869;52.344;16.928;2023-03-12T09:13:25;100331.47;;;4.25
75273;BMP280;63869;52.344;16.928;2023-03-12T09:15:51;100335.94;;;4.14
75273;BMP280;63869;52.344;16.928;2023-03-12T09:18:16;100326.31;;;4.36
75273;BMP280;63869;52.344;16.928;2023-03-12T09:20:44;100349.53;;;4.56
75273;BMP280;63869;52.344;16.928;2023-03-12T09:23:09;100352.31;;;4.78
75273;BMP280;63869;52.344;16.928;2023-03-12T09:25:35;100353.97;;;4.93
75273;BMP280;63869;52.344;16.928;2023-03-12T09:28:00;100338.16;;;5.07
75273;BMP280;63869;52.344;16.928;2023-03-12T09:30:26;100353.69;;;5.19
75273;BMP280;63869;52.344;16.928;2023-03-12T09:32:54;100346.88;;;5.18
75273;BMP280;63869;52.344;16.928;2023-03-12T09:35:19;100345.41;;;5.24
75273;BMP280;63869;52.344;16.928;2023-03-12T09:37:47;100344.31;;;5.36
75273;BMP280;63869;52.344;16.928;2023-03-12T09:40:19;100355.72;;;5.51
75273;BMP280;63869;52.344;16.928;2023-03-12T09:42:52;100352.75;;;5.56
75273;BMP280;63869;52.344;16.928;2023-03-12T09:45:24;100345.81;;;5.34
75273;BMP280;63869;52.344;16.928;2023-03-12T09:48:03;100345.16;;;5.65
75273;BMP280;63869;52.344;16.928;2023-03-12T09:50:33;100352.78;;;5.74
75273;BMP280;63869;52.344;16.928;2023-03-12T09:53:09;100348.13;;;5.46
75273;BMP280;63869;52.344;16.928;2023-03-12T09:55:38;100346.28;;;5.64
75273;BMP280;63869;52.344;16.928;2023-03-12T09:58:11;100339.78;;;5.44
75273;BMP280;63869;52.344;16.928;2023-03-12T10:00:37;100341.31;;;5.38
75273;BMP280;63869;52.344;16.928;2023-03-12T10:06:10;100348.81;;;5.32
75273;BMP280;63869;52.344;16.928;2023-03-12T10:09:02;100346.63;;;5.48
75273;BMP280;63869;52.344;16.928;2023-03-12T10:22:58;100358.53;;;6.36
75273;BMP280;63869;52.344;16.928;2023-03-12T10:25:36;100355.13;;;6.21
75273;BMP280;63869;52.344;16.928;2023-03-12T10:28:30;100357.41;;;6.16
75273;BMP280;63869;52.344;16.928;2023-03-12T10:31:00;100356.66;;;6.40
75273;BMP280;63869;52.344;16.928;2023-03-12T10:33:41;100354.75;;;6.48
75273;BMP280;63869;52.344;16.928;2023-03-12T10:36:18;100356.63;;;6.65
75273;BMP280;63869;52.344;16.928;2023-03-12T10:38:44;100362.31;;;6.71
75273;BMP280;63869;52.344;16.928;2023-03-12T10:41:15;100369.16;;;6.57
75273;BMP280;63869;52.344;16.928;2023-03-12T10:43:41;100360.41;;;6.46
75273;BMP280;63869;52.344;16.928;2023-03-12T10:48:38;100361.53;;;6.06
75273;BMP280;63869;52.344;16.928;2023-03-12T10:51:08;100360.41;;;6.11
75273;BMP280;63869;52.344;16.928;2023-03-12T10:53:38;100370.25;;;5.92
75273;BMP280;63869;52.344;16.928;2023-03-12T10:56:05;100373.25;;;5.91
75273;BMP280;63869;52.344;16.928;2023-03-12T10:58:46;100367.25;;;6.12
75273;BMP280;63869;52.344;16.928;2023-03-12T11:01:21;100357.41;;;6.30
75273;BMP280;63869;52.344;16.928;2023-03-12T11:03:50;100375.97;;;6.37
75273;BMP280;63869;52.344;16.928;2023-03-12T11:06:27;100364.59;;;6.51
75273;BMP280;63869;52.344;16.928;2023-03-12T11:11:36;100348.28;;;6.49
75273;BMP280;63869;52.344;16.928;2023-03-12T11:14:07;100355.88;;;6.65
75273;BMP280;63869;52.344;16.928;2023-03-12T11:16:39;100356.25;;;6.67
75273;BMP280;63869;52.344;16.928;2023-03-12T11:19:04;100355.06;;;6.89
75273;BMP280;63869;52.344;16.928;2023-03-12T11:21:33;100358.47;;;6.86
75273;BMP280;63869;52.344;16.928;2023-03-12T11:24:06;100364.97;;;6.71
75273;BMP280;63869;52.344;16.928;2023-03-12T11:29:26;100344.50;;;6.64
75273;BMP280;63869;52.344;16.928;2023-03-12T11:32:23;100330.78;;;6.83
75273;BMP280;63869;52.344;16.928;2023-03-12T11:34:50;100336.75;;;7.16
75273;BMP280;63869;52.344;16.928;2023-03-12T11:40:20;100314.75;;;7.08
75273;BMP280;63869;52.344;16.928;2023-03-12T11:43:09;100328.13;;;6.83
75273;BMP280;63869;52.344;16.928;2023-03-12T11:46:10;100321.72;;;6.67
75273;BMP280;63869;52.344;16.928;2023-03-12T11:59:06;100330.81;;;6.66
75273;BMP280;63869;52.344;16.928;2023-03-12T12:04:29;100318.69;;;6.65
75273;BMP280;63869;52.344;16.928;2023-03-12T12:20:45;100314.41;;;7.03
75273;BMP280;63869;52.344;16.928;2023-03-12T12:26:03;100312.06;;;7.19
75273;BMP280;63869;52.344;16.928;2023-03-12T12:36:37;100304.53;;;7.73
75273;BMP280;63869;52.344;16.928;2023-03-12T12:39:28;100312.13;;;7.74
75273;BMP280;63869;52.344;16.928;2023-03-12T12:42:01;100303.06;;;8.13
75273;BMP280;63869;52.344;16.928;2023-03-12T12:44:41;100306.09;;;8.56
75273;BMP280;63869;52.344;16.928;2023-03-12T12:47:11;100313.97;;;8.97
75273;BMP280;63869;52.344;16.928;2023-03-12T12:49:44;100315.94;;;9.23
75273;BMP280;63869;52.344;16.928;2023-03-12T12:52:18;100315.41;;;9.05
75273;BMP280;63869;52.344;16.928;2023-03-12T12:54:59;100310.03;;;9.09
75273;BMP280;63869;52.344;16.928;2023-03-12T13:02:37;100314.63;;;9.62
75273;BMP280;63869;52.344;16.928;2023-03-12T13:05:17;100310.59;;;9.77
75273;BMP280;63869;52.344;16.928;2023-03-12T13:07:42;100288.63;;;9.89
75273;BMP280;63869;52.344;16.928;2023-03-12T13:12:56;100307.03;;;10.07
75273;BMP280;63869;52.344;16.928;2023-03-12T13:15:40;100292.06;;;9.90
75273;BMP280;63869;52.344;16.928;2023-03-12T13:28:37;100324.75;;;9.97
75273;BMP280;63869;52.344;16.928;2023-03-12T13:33:47;100310.47;;;9.34
75273;BMP280;63869;52.344;16.928;2023-03-12T13:36:36;100309.09;;;9.22
75273;BMP280;63869;52.344;16.928;2023-03-12T13:41:37;100304.31;;;9.64
75273;BMP280;63869;52.344;16.928;2023-03-12T13:44:40;100297.75;;;9.69
75273;BMP280;63869;52.344;16.928;2023-03-12T13:54:42;100304.88;;;10.61
75273;BMP280;63869;52.344;16.928;2023-03-12T13:59:48;100301.94;;;10.76
75273;BMP280;63869;52.344;16.928;2023-03-12T14:02:23;100307.44;;;10.68
75273;BMP280;63869;52.344;16.928;2023-03-12T14:04:49;100299.06;;;10.66
75273;BMP280;63869;52.344;16.928;2023-03-12T14:18:29;100300.38;;;9.95
75273;BMP280;63869;52.344;16.928;2023-03-12T14:20:58;100297.22;;;9.77
75273;BMP280;63869;52.344;16.928;2023-03-12T14:23:27;100290.31;;;9.56
75273;BMP280;63869;52.344;16.928;2023-03-12T14:25:57;100288.66;;;9.66
75273;BMP280;63869;52.344;16.928;2023-03-12T14:28:24;100276.38;;;9.69
75273;BMP280;63869;52.344;16.928;2023-03-12T14:31:15;100277.28;;;9.62
75273;BMP280;63869;52.344;16.928;2023-03-12T14:33:56;100267.72;;;9.61
75273;BMP280;63869;52.344;16.928;2023-03-12T14:36:35;100271.34;;;9.51
75273;BMP280;63869;52.344;16.928;2023-03-12T14:39:17;100283.88;;;9.27
75273;BMP280;63869;52.344;16.928;2023-03-12T14:41:49;100274.75;;;9.24
75273;BMP280;63869;52.344;16.928;2023-03-12T14:44:22;100284.75;;;9.20
75273;BMP280;63869;52.344;16.928;2023-03-12T14:47:09;100281.28;;;8.93
75273;BMP280;63869;52.344;16.928;2023-03-12T14:49:43;100278.00;;;8.51
75273;BMP280;63869;52.344;16.928;2023-03-12T14:52:27;100288.69;;;8.44
75273;BMP280;63869;52.344;16.928;2023-03-12T14:54:55;100283.84;;;8.36
75273;BMP280;63869;52.344;16.928;2023-03-12T14:57:20;100272.69;;;8.44
75273;BMP280;63869;52.344;16.928;2023-03-12T14:59:56;100265.00;;;8.53
75273;BMP280;63869;52.344;16.928;2023-03-12T15:02:30;100263.13;;;8.50
75273;BMP280;63869;52.344;16.928;2023-03-12T15:04:57;100254.47;;;8.43
75273;BMP280;63869;52.344;16.928;2023-03-12T15:07:33;100258.69;;;8.40
75273;BMP280;63869;52.344;16.928;2023-03-12T15:10:02;100238.56;;;8.36
75273;BMP280;63869;52.344;16.928;2023-03-12T15:12:33;100238.19;;;8.34
75273;BMP280;63869;52.344;16.928;2023-03-12T15:18:02;100226.63;;;8.47
75273;BMP280;63869;52.344;16.928;2023-03-12T15:20:28;100245.19;;;8.54
75273;BMP280;63869;52.344;16.928;2023-03-12T15:22:54;100247.44;;;8.59
75273;BMP280;63869;52.344;16.928;2023-03-12T15:25:25;100236.91;;;8.45
75273;BMP280;63869;52.344;16.928;2023-03-12T15:31:03;100229.56;;;8.22
75273;BMP280;63869;52.344;16.928;2023-03-12T15:33:29;100233.44;;;8.14
75273;BMP280;63869;52.344;16.928;2023-03-12T15:36:15;100254.44;;;8.09
75273;BMP280;63869;52.344;16.928;2023-03-12T15:38:47;100258.75;;;7.92
75273;BMP280;63869;52.344;16.928;2023-03-12T15:41:32;100251.91;;;7.94
75273;BMP280;63869;52.344;16.928;2023-03-12T15:44:00;100259.41;;;8.07
75273;BMP280;63869;52.344;16.928;2023-03-12T15:46:26;100254.06;;;8.07
75273;BMP280;63869;52.344;16.928;2023-03-12T15:48:54;100245.72;;;8.05
75273;BMP280;63869;52.344;16.928;2023-03-12T15:51:36;100244.50;;;8.13
75273;BMP280;63869;52.344;16.928;2023-03-12T15:54:25;100247.06;;;8.23
75273;BMP280;63869;52.344;16.928;2023-03-12T15:56:51;100235.72;;;8.16
75273;BMP280;63869;52.344;16.928;2023-03-12T15:59:27;100232.25;;;8.19
75273;BMP280;63869;52.344;16.928;2023-03-12T16:01:54;100229.56;;;8.22
75273;BMP280;63869;52.344;16.928;2023-03-12T16:04:21;100232.66;;;8.21
75273;BMP280;63869;52.344;16.928;2023-03-12T16:06:48;100224.66;;;8.17
75273;BMP280;63869;52.344;16.928;2023-03-12T16:09:23;100230.75;;;8.21